createdAt,value
2018-11-01T00:02:15.560Z,123.30
2018-11-01T00:04:46.192Z,187.77
2018-11-01T00:07:16.669Z,175.53
2018-11-01T00:09:47.226Z,85.07
2018-11-01T00:12:18.922Z,73.47
2018-11-01T00:14:50.228Z,90.13
2018-11-01T00:17:20.693Z,131.43
2018-11-01T00:19:51.215Z,115.20
2018-11-01T00:22:21.729Z,101.17
2018-11-01T00:24:52.454Z,73.47
2018-11-01T00:27:22.902Z,70.90
2018-11-01T00:29:53.589Z,81.90
2018-11-01T00:32:24.341Z,291.73
2018-11-01T00:34:54.822Z,348.03
2018-11-01T00:37:25.593Z,221.60
2018-11-01T00:39:56.131Z,97.40
2018-11-01T00:42:26.637Z,88.73
2018-11-01T00:44:57.099Z,160.60
2018-11-01T00:47:27.582Z,346.77
2018-11-01T00:49:58.139Z,110.83
2018-11-01T00:52:29.007Z,294.47
2018-11-01T00:55:00.497Z,479.80
2018-11-01T00:57:31.056Z,585.27
2018-11-01T01:00:01.607Z,234.33
2018-11-01T01:02:32.141Z,220.80
2018-11-01T01:05:02.938Z,358.27
2018-11-01T01:07:33.500Z,159.17
2018-11-01T01:10:04.373Z,214.47
2018-11-01T01:12:34.974Z,95.20
2018-11-01T01:15:05.957Z,141.30
2018-11-01T01:17:36.468Z,111.30
2018-11-01T01:20:09.815Z,110.57
2018-11-01T01:22:40.801Z,75.70
2018-11-01T01:25:13.018Z,110.63
2018-11-01T01:27:43.646Z,321.70
2018-11-01T01:30:17.230Z,140.30
2018-11-01T01:32:48.130Z,77.30
2018-11-01T01:35:18.620Z,196.93
2018-11-01T01:37:49.111Z,77.53
2018-11-01T01:40:19.594Z,72.03
2018-11-01T01:42:50.040Z,87.57
2018-11-01T01:45:20.984Z,112.87
2018-11-01T01:47:51.464Z,79.33
2018-11-01T01:50:22.182Z,67.73
2018-11-01T01:52:52.876Z,70.13
2018-11-01T01:55:23.474Z,80.00
2018-11-01T01:57:54.102Z,75.23
2018-11-01T02:00:24.631Z,67.20
2018-11-01T02:02:55.104Z,78.57
2018-11-01T02:05:25.742Z,79.20
2018-11-01T02:07:56.180Z,66.07
2018-11-01T02:10:26.727Z,76.60
2018-11-01T02:12:57.535Z,64.97
2018-11-01T02:15:28.089Z,68.97
2018-11-01T02:17:58.667Z,71.83
2018-11-01T02:20:29.222Z,68.33
2018-11-01T02:22:59.757Z,61.20
2018-11-01T02:25:30.246Z,74.90
2018-11-01T02:28:05.559Z,59.87
2018-11-01T02:30:36.037Z,56.27
2018-11-01T02:33:06.713Z,55.27
2018-11-01T02:35:38.226Z,48.40
2018-11-01T02:38:08.807Z,57.17
2018-11-01T02:40:39.405Z,48.57
2018-11-01T02:43:09.894Z,59.93
2018-11-01T02:45:40.437Z,48.10
2018-11-01T02:48:10.841Z,46.90
2018-11-01T02:50:41.297Z,59.77
2018-11-01T02:53:11.797Z,53.87
2018-11-01T02:55:42.265Z,52.37
2018-11-01T02:58:12.719Z,54.03
2018-11-01T03:00:43.379Z,59.53
2018-11-01T03:03:13.968Z,53.30
2018-11-01T03:05:44.497Z,57.97
2018-11-01T03:08:16.120Z,57.10
2018-11-01T03:10:46.811Z,51.57
2018-11-01T03:13:17.591Z,59.33
2018-11-01T03:15:48.691Z,60.93
2018-11-01T03:18:20.327Z,51.93
2018-11-01T03:20:50.932Z,60.00
2018-11-01T03:23:22.004Z,53.10
2018-11-01T03:25:52.518Z,51.87
2018-11-01T03:28:22.963Z,54.00
2018-11-01T03:30:53.662Z,59.07
2018-11-01T03:33:24.696Z,63.30
2018-11-01T03:35:55.305Z,55.00
2018-11-01T03:38:25.923Z,57.50
2018-11-01T03:40:56.513Z,53.53
2018-11-01T03:43:27.014Z,57.03
2018-11-01T03:45:57.548Z,55.17
2018-11-01T03:48:28.077Z,52.13
2018-11-01T03:50:58.907Z,53.43
2018-11-01T03:53:29.857Z,59.17
2018-11-01T03:56:00.345Z,57.07
2018-11-01T03:58:30.811Z,59.17
2018-11-01T04:01:01.302Z,55.87
2018-11-01T04:03:31.949Z,59.43
2018-11-01T04:06:02.517Z,59.27
2018-11-01T04:08:33.084Z,62.63
2018-11-01T04:11:06.469Z,54.67
2018-11-01T04:13:37.378Z,66.90
2018-11-01T04:16:08.139Z,60.33
2018-11-01T04:18:38.723Z,65.73
2018-11-01T04:21:09.337Z,58.07
2018-11-01T04:23:39.973Z,58.57
2018-11-01T04:26:10.493Z,55.03
2018-11-01T04:28:40.920Z,55.80
2018-11-01T04:31:11.374Z,55.13
2018-11-01T04:33:43.346Z,53.90
2018-11-01T04:36:13.833Z,56.87
2018-11-01T04:38:44.297Z,54.53
2018-11-01T04:41:14.787Z,60.03
2018-11-01T04:43:45.241Z,56.37
2018-11-01T04:46:15.753Z,77.63
2018-11-01T04:48:46.291Z,65.07
2018-11-01T04:51:16.858Z,59.83
2018-11-01T04:53:47.481Z,58.33
2018-11-01T04:56:17.988Z,59.93
2018-11-01T04:58:48.425Z,54.57
2018-11-01T05:01:21.891Z,56.53
2018-11-01T05:03:55.092Z,62.00
2018-11-01T05:06:26.415Z,62.63
2018-11-01T05:08:56.918Z,63.50
2018-11-01T05:11:27.421Z,64.20
2018-11-01T05:13:58.193Z,64.93
2018-11-01T05:16:28.774Z,76.07
2018-11-01T05:18:59.277Z,80.57
2018-11-01T05:21:29.885Z,75.80
2018-11-01T05:24:02.293Z,82.97
2018-11-01T05:26:34.259Z,82.17
2018-11-01T05:29:04.865Z,76.93
2018-11-01T05:31:35.418Z,77.00
2018-11-01T05:34:06.307Z,66.43
2018-11-01T05:36:36.811Z,78.07
2018-11-01T05:39:10.338Z,71.30
2018-11-01T05:41:40.898Z,74.80
2018-11-01T05:44:11.296Z,74.63
2018-11-01T05:46:41.898Z,79.13
2018-11-01T05:49:12.415Z,81.57
2018-11-01T05:51:42.917Z,72.13
2018-11-01T05:54:14.153Z,72.40
2018-11-01T05:56:44.695Z,80.77
2018-11-01T05:59:15.464Z,74.90
2018-11-01T06:01:51.941Z,79.80
2018-11-01T06:04:22.481Z,79.77
2018-11-01T06:06:52.972Z,74.80
2018-11-01T06:09:28.198Z,85.23
2018-11-01T06:11:58.686Z,87.23
2018-11-01T06:14:29.392Z,88.07
2018-11-01T06:17:00.417Z,87.67
2018-11-01T06:19:31.284Z,99.77
2018-11-01T06:22:02.241Z,73.53
2018-11-01T06:24:32.909Z,78.07
2018-11-01T06:27:03.437Z,82.40
2018-11-01T06:29:34.087Z,77.83
2018-11-01T06:32:04.906Z,78.10
2018-11-01T06:34:40.067Z,73.47
2018-11-01T06:37:10.521Z,70.10
2018-11-01T06:39:41.089Z,71.67
2018-11-01T06:42:11.656Z,68.70
2018-11-01T06:44:42.097Z,73.17
2018-11-01T06:47:13.089Z,61.33
2018-11-01T06:49:43.587Z,59.50
2018-11-01T06:52:13.955Z,55.57
2018-11-01T06:54:44.914Z,60.53
2018-11-01T06:57:15.611Z,50.10
2018-11-01T06:59:46.094Z,53.37
2018-11-01T07:02:16.697Z,57.37
2018-11-01T07:04:47.202Z,56.17
2018-11-01T07:07:17.620Z,54.57
2018-11-01T07:09:48.992Z,64.00
2018-11-01T07:12:19.499Z,66.97
2018-11-01T07:14:50.335Z,56.53
2018-11-01T07:17:21.019Z,51.17
2018-11-01T07:19:51.435Z,58.97
2018-11-01T07:22:22.282Z,71.20
2018-11-01T07:24:52.763Z,59.47
2018-11-01T07:27:23.209Z,56.37
2018-11-01T07:34:54.931Z,65.03
2018-11-01T07:37:25.430Z,54.33
2018-11-01T07:39:55.942Z,59.33
2018-11-01T07:42:26.969Z,62.13
2018-11-01T07:44:57.466Z,56.13
2018-11-01T07:47:27.982Z,60.73
2018-11-01T07:49:58.557Z,55.47
2018-11-01T07:52:29.103Z,56.50
2018-11-01T07:54:59.631Z,58.17
2018-11-01T07:57:30.086Z,56.80
2018-11-01T08:00:00.674Z,59.73
2018-11-01T08:02:31.218Z,53.30
2018-11-01T08:05:02.003Z,53.47
2018-11-01T08:07:33.087Z,56.87
2018-11-01T08:10:03.546Z,60.83
2018-11-01T08:12:34.302Z,70.87
2018-11-01T08:15:05.799Z,62.57
2018-11-01T08:17:36.232Z,65.60
2018-11-01T08:20:08.143Z,61.77
2018-11-01T08:22:38.554Z,55.20
2018-11-01T08:25:09.546Z,57.00
2018-11-01T08:27:40.663Z,60.00
2018-11-01T08:30:13.397Z,56.67
2018-11-01T08:32:43.892Z,52.87
2018-11-01T08:35:14.519Z,60.57
2018-11-01T08:37:45.667Z,51.80
2018-11-01T08:40:16.295Z,52.63
2018-11-01T08:42:46.813Z,53.33
2018-11-01T08:45:17.378Z,58.50
2018-11-01T08:47:48.031Z,53.23
2018-11-01T08:50:18.598Z,56.17
2018-11-01T08:52:49.098Z,55.13
2018-11-01T08:55:19.563Z,44.23
2018-11-01T08:57:50.128Z,49.50
2018-11-01T09:03:00.928Z,48.77
2018-11-01T09:05:31.412Z,51.00
2018-11-01T09:08:02.037Z,46.57
2018-11-01T09:10:32.549Z,50.13
2018-11-01T09:13:03.143Z,49.13
2018-11-01T09:15:33.815Z,63.07
2018-11-01T09:18:04.348Z,53.80
2018-11-01T09:20:35.228Z,42.10
2018-11-01T09:23:06.026Z,50.90
2018-11-01T09:28:15.614Z,45.63
2018-11-01T09:30:46.114Z,52.97
2018-11-01T09:35:55.614Z,56.67
2018-11-01T09:38:26.159Z,55.40
2018-11-01T09:40:56.916Z,49.00
2018-11-01T09:43:27.385Z,61.10
2018-11-01T09:48:37.458Z,53.20
2018-11-01T09:53:48.374Z,45.70
2018-11-01T09:56:18.958Z,60.67
2018-11-01T09:58:49.482Z,54.27
2018-11-01T10:01:20.047Z,58.47
2018-11-01T10:03:50.598Z,58.80
2018-11-01T10:06:21.071Z,57.10
2018-11-01T10:08:51.725Z,59.43
2018-11-01T10:11:23.502Z,64.33
2018-11-01T10:13:54.100Z,61.77
2018-11-01T10:16:24.774Z,60.07
2018-11-01T10:18:55.195Z,57.57
2018-11-01T10:21:25.785Z,55.43
2018-11-01T10:23:56.366Z,71.40
2018-11-01T10:26:26.844Z,77.67
2018-11-01T10:28:57.411Z,78.73
2018-11-01T10:31:27.942Z,74.50
2018-11-01T10:33:58.621Z,72.70
2018-11-01T10:36:29.182Z,81.30
2018-11-01T10:39:00.710Z,86.87
2018-11-01T10:41:31.283Z,78.03
2018-11-01T10:44:01.743Z,84.57
2018-11-01T10:46:32.347Z,82.17
2018-11-01T10:49:02.908Z,77.77
2018-11-01T10:51:33.678Z,79.03
2018-11-01T10:54:04.405Z,73.77
2018-11-01T10:56:34.873Z,80.50
2018-11-01T10:59:05.601Z,81.00
2018-11-01T11:01:38.716Z,68.43
2018-11-01T11:04:09.301Z,69.70
2018-11-01T11:06:39.941Z,63.80
2018-11-01T11:09:10.593Z,69.77
2018-11-01T11:11:41.237Z,64.93
2018-11-01T11:14:11.822Z,62.77
2018-11-01T11:16:43.037Z,60.50
2018-11-01T11:19:13.708Z,57.83
2018-11-01T11:24:23.455Z,55.73
2018-11-01T11:26:54.012Z,62.17
2018-11-01T11:29:24.692Z,69.47
2018-11-01T11:31:55.117Z,60.80
2018-11-01T11:34:25.825Z,52.67
2018-11-01T11:36:56.420Z,57.97
2018-11-01T11:39:27.580Z,47.40
2018-11-01T11:41:58.346Z,57.50
2018-11-01T11:44:29.044Z,56.60
2018-11-01T11:46:59.587Z,55.37
2018-11-01T11:49:30.092Z,51.93
2018-11-01T11:52:00.612Z,52.60
2018-11-01T11:54:31.138Z,48.20
2018-11-01T11:57:01.758Z,48.00
2018-11-01T11:59:33.308Z,51.20
2018-11-01T12:02:03.834Z,58.93
2018-11-01T12:04:34.289Z,51.63
2018-11-01T12:07:04.952Z,52.07
2018-11-01T12:09:35.471Z,44.63
2018-11-01T12:12:05.957Z,47.33
2018-11-01T12:14:36.390Z,48.40
2018-11-01T12:17:07.165Z,60.80
2018-11-01T12:19:37.751Z,42.77
2018-11-01T12:22:08.520Z,41.70
2018-11-01T12:24:39.069Z,53.97
2018-11-01T12:27:09.643Z,47.90
2018-11-01T12:32:20.439Z,55.17
2018-11-01T12:34:51.027Z,58.60
2018-11-01T12:37:21.509Z,49.07
2018-11-01T12:42:32.776Z,49.27
2018-11-01T12:45:03.321Z,49.33
2018-11-01T12:47:33.775Z,47.87
2018-11-01T12:50:04.441Z,46.47
2018-11-01T12:52:34.988Z,59.03
2018-11-01T12:55:06.002Z,49.80
2018-11-01T12:57:36.762Z,55.53
2018-11-01T13:00:09.020Z,55.17
2018-11-01T13:02:39.589Z,50.33
2018-11-01T13:05:09.578Z,58.70
2018-11-01T13:07:40.131Z,59.33
2018-11-01T13:10:10.758Z,57.60
2018-11-01T13:12:41.250Z,59.40
2018-11-01T13:15:12.975Z,47.33
2018-11-01T13:17:43.564Z,51.90
2018-11-01T13:20:14.193Z,51.20
2018-11-01T13:22:44.747Z,49.20
2018-11-01T13:25:15.276Z,53.33
2018-11-01T13:27:45.786Z,47.50
2018-11-01T13:30:16.723Z,52.60
2018-11-01T13:35:28.321Z,54.13
2018-11-01T13:37:58.721Z,46.23
2018-11-01T13:40:29.608Z,58.13
2018-11-01T13:43:00.094Z,56.43
2018-11-01T13:45:30.627Z,54.47
2018-11-01T13:48:01.308Z,57.83
2018-11-01T13:50:31.846Z,54.57
2018-11-01T13:53:02.648Z,59.47
2018-11-01T13:55:33.098Z,58.73
2018-11-01T13:58:03.598Z,60.50
2018-11-01T14:00:34.699Z,72.10
2018-11-01T14:03:05.193Z,62.57
2018-11-01T14:05:35.747Z,61.60
2018-11-01T14:08:07.056Z,72.77
2018-11-01T14:13:39.711Z,62.97
2018-11-01T14:16:10.116Z,64.67
2018-11-01T14:18:40.616Z,74.77
2018-11-01T14:21:11.124Z,74.27
2018-11-01T14:23:41.698Z,77.97
2018-11-01T14:26:12.509Z,67.50
2018-11-01T14:28:43.129Z,62.70
2018-11-01T14:31:13.788Z,64.30
2018-11-01T14:33:44.172Z,65.97
2018-11-01T14:36:14.568Z,66.67
2018-11-01T14:38:44.918Z,66.07
2018-11-01T14:41:15.365Z,68.40
2018-11-01T14:43:45.727Z,68.50
2018-11-01T14:46:16.143Z,70.70
2018-11-01T14:48:46.580Z,60.23
2018-11-01T14:51:17.128Z,71.67
2018-11-01T14:53:48.527Z,70.50
2018-11-01T14:56:20.198Z,70.43
2018-11-01T14:58:50.615Z,76.13
2018-11-01T15:01:20.772Z,75.33
2018-11-01T15:03:51.081Z,70.83
2018-11-01T15:06:21.501Z,72.33
2018-11-01T15:11:30.986Z,115.17
2018-11-01T15:14:01.465Z,89.90
2018-11-01T15:16:31.865Z,66.40
2018-11-01T15:19:02.257Z,73.47
2018-11-01T15:21:32.630Z,71.13
2018-11-01T15:24:03.159Z,66.33
2018-11-01T15:26:33.661Z,68.43
2018-11-01T15:29:04.147Z,65.43
2018-11-01T15:31:34.505Z,70.13
2018-11-01T15:36:45.007Z,72.37
2018-11-01T15:39:15.372Z,72.53
2018-11-01T15:41:46.056Z,67.83
2018-11-01T15:44:16.624Z,70.43
2018-11-01T15:46:47.152Z,64.70
2018-11-01T15:49:17.582Z,72.83
2018-11-01T15:51:47.971Z,65.77
2018-11-01T15:54:18.538Z,63.00
2018-11-01T15:56:49.014Z,68.10
2018-11-01T15:59:19.432Z,63.10
2018-11-01T16:01:50.306Z,68.30
2018-11-01T16:04:20.776Z,69.47
2018-11-01T16:06:51.198Z,53.20
2018-11-01T16:09:21.590Z,65.70
2018-11-01T16:11:52.095Z,66.20
2018-11-01T16:14:22.632Z,61.50
2018-11-01T16:16:53.010Z,65.07
2018-11-01T16:19:23.675Z,64.93
2018-11-01T16:21:54.093Z,68.37
2018-11-01T16:24:24.491Z,64.00
2018-11-01T16:26:54.941Z,66.07
2018-11-01T16:29:25.309Z,67.67
2018-11-01T16:31:55.658Z,68.17
2018-11-01T16:34:26.189Z,60.40
2018-11-01T16:36:56.777Z,70.40
2018-11-01T16:39:27.128Z,64.53
2018-11-01T16:41:57.596Z,65.73
2018-11-01T16:44:27.912Z,77.00
2018-11-01T16:46:58.356Z,65.93
2018-11-01T16:49:28.651Z,69.40
2018-11-01T16:51:59.120Z,69.47
2018-11-01T16:54:29.718Z,67.70
2018-11-01T16:57:00.163Z,79.97
2018-11-01T16:59:30.605Z,71.60
2018-11-01T17:02:01.005Z,69.53
2018-11-01T17:04:31.791Z,72.40
2018-11-01T17:07:02.254Z,78.97
2018-11-01T17:09:32.828Z,75.37
2018-11-01T17:12:03.313Z,77.30
2018-11-01T17:14:33.960Z,70.97
2018-11-01T17:17:04.404Z,66.70
2018-11-01T17:19:34.755Z,68.50
2018-11-01T17:22:06.419Z,68.13
2018-11-01T17:24:37.015Z,68.00
2018-11-01T17:27:07.974Z,71.77
2018-11-01T17:29:38.444Z,69.80
2018-11-01T17:32:08.816Z,67.37
2018-11-01T17:34:40.247Z,72.97
2018-11-01T17:37:11.002Z,65.13
2018-11-01T17:39:41.410Z,69.17
2018-11-01T17:42:12.129Z,65.23
2018-11-01T17:44:42.870Z,67.30
2018-11-01T17:47:13.210Z,70.77
2018-11-01T17:49:43.637Z,68.40
2018-11-01T17:52:14.013Z,69.33
2018-11-01T17:54:44.662Z,86.53
2018-11-01T17:57:15.087Z,73.30
2018-11-01T17:59:45.600Z,72.37
2018-11-01T18:02:16.285Z,83.47
2018-11-01T18:04:46.824Z,76.70
2018-11-01T18:07:17.373Z,74.80
2018-11-01T18:09:47.928Z,65.07
2018-11-01T18:12:18.475Z,67.37
2018-11-01T18:14:49.286Z,75.53
2018-11-01T18:17:19.708Z,80.23
2018-11-01T18:19:50.179Z,67.33
2018-11-01T18:22:20.634Z,74.77
2018-11-01T18:24:51.091Z,64.97
2018-11-01T18:27:21.787Z,67.73
2018-11-01T18:29:52.364Z,67.67
2018-11-01T18:32:22.889Z,69.93
2018-11-01T18:34:53.819Z,64.03
2018-11-01T18:37:24.410Z,72.80
2018-11-01T18:39:54.867Z,67.07
2018-11-01T18:42:25.365Z,68.50
2018-11-01T18:44:55.853Z,72.60
2018-11-01T18:47:26.504Z,64.07
2018-11-01T18:49:56.998Z,73.50
2018-11-01T18:52:27.542Z,60.43
2018-11-01T18:54:58.242Z,61.70
2018-11-01T19:00:14.935Z,67.67
2018-11-01T19:02:45.571Z,67.60
2018-11-01T19:05:16.510Z,63.50
2018-11-01T19:10:27.229Z,57.33
2018-11-01T19:12:57.739Z,57.07
2018-11-01T19:15:28.477Z,62.23
2018-11-01T19:17:58.986Z,60.83
2018-11-01T19:20:29.499Z,57.10
2018-11-01T19:23:00.018Z,52.83
2018-11-01T19:25:31.645Z,57.10
2018-11-01T19:28:02.476Z,54.73
2018-11-01T19:30:32.920Z,54.90
2018-11-01T19:33:03.483Z,51.93
2018-11-01T19:35:34.044Z,54.13
2018-11-01T19:38:04.567Z,57.53
2018-11-01T19:40:35.244Z,48.97
2018-11-01T19:43:05.898Z,48.50
2018-11-01T19:45:36.471Z,46.00
2018-11-01T19:48:07.046Z,44.27
2018-11-01T19:50:38.458Z,43.67
2018-11-01T19:53:11.962Z,46.67
2018-11-01T19:55:42.490Z,53.63
2018-11-01T19:58:13.066Z,48.87
2018-11-01T20:00:43.560Z,43.13
2018-11-01T20:03:14.115Z,47.50
2018-11-01T20:05:44.684Z,46.13
2018-11-01T20:08:15.630Z,44.27
2018-11-01T20:10:46.221Z,44.60
2018-11-01T20:13:16.829Z,43.27
2018-11-01T20:15:47.412Z,48.60
2018-11-01T20:18:17.967Z,47.50
2018-11-01T20:20:48.525Z,45.73
2018-11-01T20:23:19.021Z,49.17
2018-11-01T20:25:49.717Z,51.63
2018-11-01T20:28:20.436Z,46.87
2018-11-01T20:30:51.010Z,45.30
2018-11-01T20:33:21.643Z,53.20
2018-11-01T20:35:52.034Z,39.07
2018-11-01T20:38:22.533Z,42.20
2018-11-01T20:40:52.953Z,45.50
2018-11-01T20:43:23.449Z,39.40
2018-11-01T20:45:53.876Z,43.67
2018-11-01T20:48:24.576Z,38.53
2018-11-01T20:50:55.155Z,40.33
2018-11-01T20:53:25.566Z,40.27
2018-11-01T20:55:56.158Z,39.47
2018-11-01T20:58:26.650Z,36.63
2018-11-01T21:00:57.323Z,41.97
2018-11-01T21:03:27.765Z,36.57
2018-11-01T21:05:58.198Z,34.73
2018-11-01T21:08:28.953Z,32.27
2018-11-01T21:10:59.480Z,31.20
2018-11-01T21:13:30.004Z,37.90
2018-11-01T21:16:00.455Z,45.57
2018-11-01T21:18:31.147Z,35.73
2018-11-01T21:21:01.629Z,40.77
2018-11-01T21:23:32.195Z,35.73
2018-11-01T21:26:02.764Z,41.20
2018-11-01T21:28:33.319Z,35.50
2018-11-01T21:31:03.751Z,35.03
2018-11-01T21:33:34.292Z,34.57
2018-11-01T21:36:05.389Z,35.80
2018-11-01T21:38:36.163Z,31.63
2018-11-01T21:41:07.139Z,32.23
2018-11-01T21:43:37.655Z,35.13
2018-11-01T21:46:08.145Z,34.90
2018-11-01T21:48:38.770Z,33.63
2018-11-01T21:51:09.379Z,28.33
2018-11-01T21:53:39.961Z,31.73
2018-11-01T21:56:10.724Z,25.30
2018-11-01T21:58:41.240Z,32.87
2018-11-01T22:01:11.669Z,30.47
2018-11-01T22:03:42.293Z,29.70
2018-11-01T22:06:12.801Z,33.47
2018-11-01T22:08:43.666Z,37.33
2018-11-01T22:11:14.238Z,40.87
2018-11-01T22:13:45.053Z,35.07
2018-11-01T22:16:15.589Z,32.50
2018-11-01T22:18:46.452Z,33.77
2018-11-01T22:21:16.993Z,38.33
2018-11-01T22:23:47.514Z,35.30
2018-11-01T22:26:17.945Z,28.53
2018-11-01T22:28:48.728Z,31.77
2018-11-01T22:31:19.152Z,35.53
2018-11-01T22:36:30.595Z,34.80
2018-11-01T22:39:01.079Z,36.07
2018-11-01T22:41:31.789Z,32.23
2018-11-01T22:44:02.282Z,30.70
2018-11-01T22:46:32.800Z,27.03
2018-11-01T22:49:03.289Z,27.10
2018-11-01T22:51:33.841Z,26.00
2018-11-01T22:54:04.493Z,26.20
2018-11-01T22:56:35.006Z,28.20
2018-11-01T22:59:05.604Z,32.87
2018-11-01T23:01:36.177Z,25.97
2018-11-01T23:04:07.316Z,26.43
2018-11-01T23:06:37.861Z,24.07
2018-11-01T23:09:10.261Z,27.00
2018-11-01T23:11:41.231Z,27.80
2018-11-01T23:14:11.725Z,29.93
2018-11-01T23:16:42.271Z,30.70
2018-11-01T23:19:13.009Z,26.97
2018-11-01T23:21:43.491Z,27.80
2018-11-01T23:24:13.963Z,30.10
2018-11-01T23:26:44.360Z,25.77
2018-11-01T23:29:14.857Z,32.47
2018-11-01T23:31:45.326Z,29.13
2018-11-01T23:34:16.029Z,28.63
2018-11-01T23:36:51.281Z,28.53
2018-11-01T23:39:26.662Z,21.60
2018-11-01T23:42:02.223Z,24.40
2018-11-01T23:44:37.633Z,31.17
2018-11-01T23:47:13.142Z,28.80
2018-11-01T23:49:48.768Z,27.20
2018-11-01T23:52:21.314Z,26.50
2018-11-01T23:54:52.634Z,24.77
2018-11-01T23:57:23.143Z,21.93
2018-11-01T23:59:53.796Z,21.83
